Port Imperial New Jersey — WBR3133 — position and weather

sailwx.info

Track history (hours):
 
Tides and Currents Weather Stations Pressure Air Temp Water Temp Dewpoint Dewpoint Depression Visibility Wind Speed Wind Dir Waves Ship Positions

Port Imperial New Jersey

Owner: PORT IMPERIAL FERRY CORP, WEEHAWKEN, NJ. More information available from US FCC via Universal Licensing System and Coast Guard Vessel Documentation Center.

Last reported at 2017-Feb-25 13:33 UTC. Time now 2017-Feb-25 13:49 UTC.
Position N 40°46' W 074°01'.

Length 31 m.

Type: Passenger vessel. MMSI: 366990550.

Date/timePositionNaut miles runAvg speedWind from/ knotsBaromVisibWave heightAir tempDewpointWater temp
2017-Feb-25 13:33N 40°46' W 074°01'0 0.0
2017-Feb-25 12:33N 40°46' W 074°01'0 0.0
2017-Feb-25 11:33N 40°46' W 074°01'0 0.0
2017-Feb-25 10:33N 40°46' W 074°01'0 0.0
2017-Feb-25 09:33N 40°46' W 074°01'0 0.0
2017-Feb-25 01:07N 40°46' W 074°01'1 1.1
2017-Feb-25 00:33N 40°46' W 074°01'0 0.1
2017-Feb-24 23:33N 40°46' W 074°01'0 0.3
2017-Feb-24 22:33N 40°45' W 074°01'0 0.2
2017-Feb-24 21:33N 40°46' W 074°01'1 0.1
2017-Feb-24 15:10N 40°46' W 074°01'1 0.9
2017-Feb-24 14:33N 40°46' W 074°01'0 0.1
2017-Feb-24 13:33N 40°46' W 074°01'0 0.1
2017-Feb-24 12:33N 40°45' W 074°01'1 0.1
2017-Feb-24 01:10N 40°46' W 074°01'1 1.1
2017-Feb-24 00:33N 40°46' W 074°01'0 0.0
2017-Feb-23 23:33N 40°46' W 074°01'0 0.2
2017-Feb-23 22:33N 40°46' W 074°01'0 0.1
2017-Feb-23 21:33N 40°46' W 074°01'1 0.1
2017-Feb-23 16:24N 40°46' W 074°01'0 0.0
2017-Feb-23 15:27N 40°46' W 074°01'1 0.8
2017-Feb-23 14:33N 40°46' W 074°00'0 0.0
2017-Feb-23 13:33N 40°46' W 074°00'0 0.3
2017-Feb-23 12:34N 40°46' W 074°01'1 0.7
2017-Feb-23 11:33N 40°46' W 074°01'0 0.0
2017-Feb-23 01:08N 40°46' W 074°01'1 1.3
2017-Feb-23 00:33N 40°46' W 074°01'0 0.0
2017-Feb-22 23:34N 40°46' W 074°01'0 0.1
2017-Feb-22 22:33N 40°46' W 074°01'0 0.0
2017-Feb-22 21:33N 40°46' W 074°01'1 0.2
2017-Feb-22 15:22N 40°47' W 074°01'1 1.3
2017-Feb-22 14:33N 40°46' W 074°01'0 0.1
2017-Feb-22 13:33N 40°46' W 074°01'0 0.2
2017-Feb-22 12:33N 40°46' W 074°01'1 0.6
2017-Feb-22 11:33N 40°46' W 074°01'0 0.0
2017-Feb-22 10:33N 40°46' W 074°01'0 0.0
2017-Feb-22 09:33N 40°46' W 074°01'1 0.1
2017-Feb-21 23:33N 40°46' W 074°01'0 0.1
2017-Feb-21 22:34N 40°46' W 074°01'0 0.1
2017-Feb-21 21:33N 40°46' W 074°01'1 0.1
2017-Feb-21 15:18N 40°46' W 074°01'1 1.1
2017-Feb-21 14:34N 40°45' W 074°01'0 0.1
2017-Feb-21 13:33N 40°46' W 074°01'0 0.1
2017-Feb-21 12:34N 40°46' W 074°01'1 0.1
2017-Feb-21 00:24N 40°46' W 074°01'3 4.1
2017-Feb-20 23:34N 40°43' W 074°01'0 0.1
2017-Feb-20 22:34N 40°43' W 074°01'0 0.1
2017-Feb-20 21:34N 40°43' W 074°01'0 0.0
2017-Feb-20 20:34N 40°43' W 074°01'0 0.1
2017-Feb-20 19:33N 40°43' W 074°01'0 0.1
2017-Feb-20 18:33N 40°43' W 074°01'0 0.2
2017-Feb-20 17:33N 40°43' W 074°01'0 0.1
2017-Feb-20 16:34N 40°43' W 074°01'0 0.1
2017-Feb-20 15:34N 40°43' W 074°01'3 2.6
2017-Feb-20 14:34N 40°45' W 074°01'1 0.1
2017-Feb-20 02:31N 40°46' W 074°01'4 3.7
2017-Feb-20 01:33N 40°43' W 074°02'0 0.1
2017-Feb-20 00:33N 40°43' W 074°02'0 0.1
2017-Feb-19 23:33N 40°43' W 074°02'0 0.3
2017-Feb-19 22:33N 40°43' W 074°01'0 0.5
2017-Feb-19 21:33N 40°43' W 074°02'0 0.5
2017-Feb-19 20:33N 40°43' W 074°01'0 0.5
2017-Feb-19 19:33N 40°43' W 074°02'0 0.0
2017-Feb-19 18:33N 40°43' W 074°02'0 0.3
2017-Feb-19 17:33N 40°43' W 074°02'0 0.2
2017-Feb-19 16:33N 40°43' W 074°02'0 0.0
2017-Feb-19 15:33N 40°43' W 074°02'4 0.3
2017-Feb-19 02:24N 40°46' W 074°01'4 4.3
2017-Feb-19 01:33N 40°43' W 074°01'0 0.2
2017-Feb-19 00:33N 40°43' W 074°02'0 0.0
2017-Feb-18 23:33N 40°43' W 074°02'0 0.1
2017-Feb-18 22:33N 40°43' W 074°02'0 0.2
2017-Feb-18 21:34N 40°43' W 074°02'0 0.4
2017-Feb-18 20:33N 40°43' W 074°01'1 0.5
2017-Feb-18 19:33N 40°43' W 074°02'0 0.1
2017-Feb-18 18:33N 40°43' W 074°02'0 0.1
2017-Feb-18 17:33N 40°43' W 074°02'0 0.0
2017-Feb-18 16:32N 40°43' W 074°02'0 0.0
2017-Feb-18 15:33N 40°43' W 074°02'4 3.5
2017-Feb-18 14:33N 40°46' W 074°01'0 0.0
2017-Feb-17 23:33N 40°46' W 074°01'1 0.8
2017-Feb-17 22:34N 40°46' W 074°01'0 0.1
2017-Feb-17 21:33N 40°46' W 074°01'0 0.0
2017-Feb-17 14:33N 40°45' W 074°01'0 0.4
2017-Feb-17 13:33N 40°46' W 074°00'0 0.4
2017-Feb-17 12:33N 40°45' W 074°01'1 0.8
2017-Feb-17 11:34N 40°46' W 074°01'1 0.1
2017-Feb-16 23:33N 40°45' W 074°01'0 0.0
2017-Feb-16 22:33N 40°45' W 074°01'0 0.2
2017-Feb-16 21:33N 40°46' W 074°01'1 0.1
2017-Feb-16 15:13N 40°46' W 074°01'1 1.0
2017-Feb-16 14:33N 40°46' W 074°00'0 0.2
2017-Feb-16 13:33N 40°46' W 074°00'0 0.3
2017-Feb-16 12:33N 40°45' W 074°01'1 0.8
2017-Feb-16 11:33N 40°46' W 074°01'0 0.0
2017-Feb-16 10:33N 40°46' W 074°01'1 0.1
2017-Feb-15 23:33N 40°45' W 074°01'0 0.2
2017-Feb-15 22:34N 40°46' W 074°01'0 0.1
2017-Feb-15 21:33N 40°46' W 074°01'1 0.1
2017-Feb-15 15:15N 40°46' W 074°01'1 1.0
2017-Feb-15 14:33N 40°46' W 074°01'  
Track history (hours):
 
Tides and Currents Weather Stations Pressure Air Temp Water Temp Dewpoint Dewpoint Depression Visibility Wind Speed Wind Dir Waves Ship Positions

Port Imperial New Jersey

Owner: PORT IMPERIAL FERRY CORP, WEEHAWKEN, NJ. More information available from US FCC via Universal Licensing System and Coast Guard Vessel Documentation Center.

Last reported at 2017-Feb-25 13:33 UTC. Time now 2017-Feb-25 13:49 UTC.
Position N 40°46' W 074°01'.

Length 31 m.

Type: Passenger vessel. MMSI: 366990550.

Date/timePositionNaut miles runAvg speedWind from/ knotsBaromVisibWave heightAir tempDewpointWater temp
2017-Feb-25 13:33N 40°46' W 074°01'0 0.0
2017-Feb-25 12:33N 40°46' W 074°01'0 0.0
2017-Feb-25 11:33N 40°46' W 074°01'0 0.0
2017-Feb-25 10:33N 40°46' W 074°01'0 0.0
2017-Feb-25 09:33N 40°46' W 074°01'0 0.0
2017-Feb-25 01:07N 40°46' W 074°01'1 1.1
2017-Feb-25 00:33N 40°46' W 074°01'0 0.1
2017-Feb-24 23:33N 40°46' W 074°01'0 0.3
2017-Feb-24 22:33N 40°45' W 074°01'0 0.2
2017-Feb-24 21:33N 40°46' W 074°01'1 0.1
2017-Feb-24 15:10N 40°46' W 074°01'1 0.9
2017-Feb-24 14:33N 40°46' W 074°01'0 0.1
2017-Feb-24 13:33N 40°46' W 074°01'0 0.1
2017-Feb-24 12:33N 40°45' W 074°01'1 0.1
2017-Feb-24 01:10N 40°46' W 074°01'1 1.1
2017-Feb-24 00:33N 40°46' W 074°01'0 0.0
2017-Feb-23 23:33N 40°46' W 074°01'0 0.2
2017-Feb-23 22:33N 40°46' W 074°01'0 0.1
2017-Feb-23 21:33N 40°46' W 074°01'1 0.1
2017-Feb-23 16:24N 40°46' W 074°01'0 0.0
2017-Feb-23 15:27N 40°46' W 074°01'1 0.8
2017-Feb-23 14:33N 40°46' W 074°00'0 0.0
2017-Feb-23 13:33N 40°46' W 074°00'0 0.3
2017-Feb-23 12:34N 40°46' W 074°01'1 0.7
2017-Feb-23 11:33N 40°46' W 074°01'0 0.0
2017-Feb-23 01:08N 40°46' W 074°01'1 1.3
2017-Feb-23 00:33N 40°46' W 074°01'0 0.0
2017-Feb-22 23:34N 40°46' W 074°01'0 0.1
2017-Feb-22 22:33N 40°46' W 074°01'0 0.0
2017-Feb-22 21:33N 40°46' W 074°01'1 0.2
2017-Feb-22 15:22N 40°47' W 074°01'1 1.3
2017-Feb-22 14:33N 40°46' W 074°01'0 0.1
2017-Feb-22 13:33N 40°46' W 074°01'0 0.2
2017-Feb-22 12:33N 40°46' W 074°01'1 0.6
2017-Feb-22 11:33N 40°46' W 074°01'0 0.0
2017-Feb-22 10:33N 40°46' W 074°01'0 0.0
2017-Feb-22 09:33N 40°46' W 074°01'1 0.1
2017-Feb-21 23:33N 40°46' W 074°01'0 0.1
2017-Feb-21 22:34N 40°46' W 074°01'0 0.1
2017-Feb-21 21:33N 40°46' W 074°01'1 0.1
2017-Feb-21 15:18N 40°46' W 074°01'1 1.1
2017-Feb-21 14:34N 40°45' W 074°01'0 0.1
2017-Feb-21 13:33N 40°46' W 074°01'0 0.1
2017-Feb-21 12:34N 40°46' W 074°01'1 0.1
2017-Feb-21 00:24N 40°46' W 074°01'3 4.1
2017-Feb-20 23:34N 40°43' W 074°01'0 0.1
2017-Feb-20 22:34N 40°43' W 074°01'0 0.1
2017-Feb-20 21:34N 40°43' W 074°01'0 0.0
2017-Feb-20 20:34N 40°43' W 074°01'0 0.1
2017-Feb-20 19:33N 40°43' W 074°01'0 0.1
2017-Feb-20 18:33N 40°43' W 074°01'0 0.2
2017-Feb-20 17:33N 40°43' W 074°01'0 0.1
2017-Feb-20 16:34N 40°43' W 074°01'0 0.1
2017-Feb-20 15:34N 40°43' W 074°01'3 2.6
2017-Feb-20 14:34N 40°45' W 074°01'1 0.1
2017-Feb-20 02:31N 40°46' W 074°01'4 3.7
2017-Feb-20 01:33N 40°43' W 074°02'0 0.1
2017-Feb-20 00:33N 40°43' W 074°02'0 0.1
2017-Feb-19 23:33N 40°43' W 074°02'0 0.3
2017-Feb-19 22:33N 40°43' W 074°01'0 0.5
2017-Feb-19 21:33N 40°43' W 074°02'0 0.5
2017-Feb-19 20:33N 40°43' W 074°01'0 0.5
2017-Feb-19 19:33N 40°43' W 074°02'0 0.0
2017-Feb-19 18:33N 40°43' W 074°02'0 0.3
2017-Feb-19 17:33N 40°43' W 074°02'0 0.2
2017-Feb-19 16:33N 40°43' W 074°02'0 0.0
2017-Feb-19 15:33N 40°43' W 074°02'4 0.3
2017-Feb-19 02:24N 40°46' W 074°01'4 4.3
2017-Feb-19 01:33N 40°43' W 074°01'0 0.2
2017-Feb-19 00:33N 40°43' W 074°02'0 0.0
2017-Feb-18 23:33N 40°43' W 074°02'0 0.1
2017-Feb-18 22:33N 40°43' W 074°02'0 0.2
2017-Feb-18 21:34N 40°43' W 074°02'0 0.4
2017-Feb-18 20:33N 40°43' W 074°01'1 0.5
2017-Feb-18 19:33N 40°43' W 074°02'0 0.1
2017-Feb-18 18:33N 40°43' W 074°02'0 0.1
2017-Feb-18 17:33N 40°43' W 074°02'0 0.0
2017-Feb-18 16:32N 40°43' W 074°02'0 0.0
2017-Feb-18 15:33N 40°43' W 074°02'4 3.5
2017-Feb-18 14:33N 40°46' W 074°01'0 0.0
2017-Feb-17 23:33N 40°46' W 074°01'1 0.8
2017-Feb-17 22:34N 40°46' W 074°01'0 0.1
2017-Feb-17 21:33N 40°46' W 074°01'0 0.0
2017-Feb-17 14:33N 40°45' W 074°01'0 0.4
2017-Feb-17 13:33N 40°46' W 074°00'0 0.4
2017-Feb-17 12:33N 40°45' W 074°01'1 0.8
2017-Feb-17 11:34N 40°46' W 074°01'1 0.1
2017-Feb-16 23:33N 40°45' W 074°01'0 0.0
2017-Feb-16 22:33N 40°45' W 074°01'0 0.2
2017-Feb-16 21:33N 40°46' W 074°01'1 0.1
2017-Feb-16 15:13N 40°46' W 074°01'1 1.0
2017-Feb-16 14:33N 40°46' W 074°00'0 0.2
2017-Feb-16 13:33N 40°46' W 074°00'0 0.3
2017-Feb-16 12:33N 40°45' W 074°01'1 0.8
2017-Feb-16 11:33N 40°46' W 074°01'0 0.0
2017-Feb-16 10:33N 40°46' W 074°01'1 0.1
2017-Feb-15 23:33N 40°45' W 074°01'0 0.2
2017-Feb-15 22:34N 40°46' W 074°01'0 0.1
2017-Feb-15 21:33N 40°46' W 074°01'1 0.1
2017-Feb-15 15:15N 40°46' W 074°01'1 1.0
2017-Feb-15 14:33N 40°46' W 074°01'  

Dump ship's entire track history